createdAt,value
2018-09-30T00:01:09.263Z,13.66
2018-09-30T00:03:38.114Z,13.60
2018-09-30T00:06:06.891Z,13.53
2018-09-30T00:08:36.035Z,13.56
2018-09-30T00:11:04.864Z,13.57
2018-09-30T00:13:33.776Z,13.48
2018-09-30T00:16:02.628Z,13.45
2018-09-30T00:18:31.860Z,13.36
2018-09-30T00:21:01.372Z,13.34
2018-09-30T00:23:34.310Z,13.29
2018-09-30T00:26:08.227Z,13.25
2018-09-30T00:28:37.082Z,13.26
2018-09-30T00:31:05.987Z,13.26
2018-09-30T00:33:38.555Z,13.21
2018-09-30T00:36:07.474Z,13.12
2018-09-30T00:38:36.491Z,13.04
2018-09-30T00:41:05.737Z,13.00
2018-09-30T00:43:34.524Z,12.98
2018-09-30T00:46:03.332Z,12.96
2018-09-30T00:48:32.323Z,13.00
2018-09-30T00:51:01.325Z,12.95
2018-09-30T00:53:30.124Z,12.91
2018-09-30T00:55:59.030Z,12.91
2018-09-30T00:58:27.871Z,12.86
2018-09-30T01:00:56.908Z,12.81
2018-09-30T01:03:25.780Z,12.79
2018-09-30T01:05:54.603Z,12.74
2018-09-30T01:08:23.460Z,12.69
2018-09-30T01:10:52.351Z,12.65
2018-09-30T01:13:21.216Z,12.61
2018-09-30T01:15:50.031Z,12.60
2018-09-30T01:18:18.821Z,12.61
2018-09-30T01:20:48.054Z,12.62
2018-09-30T01:23:17.233Z,12.55
2018-09-30T01:25:46.029Z,12.41
2018-09-30T01:28:15.523Z,12.26
2018-09-30T01:30:44.380Z,12.15
2018-09-30T01:33:13.222Z,12.16
2018-09-30T01:35:42.012Z,12.15
2018-09-30T01:38:10.870Z,12.14
2018-09-30T01:40:39.783Z,12.16
2018-09-30T01:43:08.632Z,12.15
2018-09-30T01:45:37.504Z,12.10
2018-09-30T01:48:06.564Z,12.05
2018-09-30T01:50:35.380Z,11.95
2018-09-30T01:53:04.236Z,11.88
2018-09-30T01:55:33.040Z,11.83
2018-09-30T01:58:01.887Z,11.82
2018-09-30T02:00:30.832Z,11.78
2018-09-30T02:03:00.004Z,11.76
2018-09-30T02:05:28.971Z,11.71
2018-09-30T02:07:57.775Z,11.63
2018-09-30T02:10:26.655Z,11.64
2018-09-30T02:12:55.484Z,11.63
2018-09-30T02:15:24.427Z,11.70
2018-09-30T02:17:53.319Z,11.76
2018-09-30T02:20:22.191Z,11.77
2018-09-30T02:22:51.692Z,11.71
2018-09-30T02:25:20.515Z,11.76
2018-09-30T02:27:49.374Z,11.68
2018-09-30T02:30:18.287Z,11.64
2018-09-30T02:32:47.080Z,11.63
2018-09-30T02:35:15.859Z,11.63
2018-09-30T02:37:44.735Z,11.62
2018-09-30T02:40:13.581Z,11.62
2018-09-30T02:42:42.383Z,11.62
2018-09-30T02:45:11.226Z,11.59
2018-09-30T02:47:40.068Z,11.54
2018-09-30T02:50:08.889Z,11.50
2018-09-30T02:52:37.735Z,11.43
2018-09-30T02:55:06.536Z,11.43
2018-09-30T02:57:35.581Z,11.47
2018-09-30T03:00:05.934Z,11.46
2018-09-30T03:02:34.805Z,11.43
2018-09-30T03:05:03.655Z,11.43
2018-09-30T03:07:37.645Z,11.41
2018-09-30T03:10:07.630Z,11.33
2018-09-30T03:12:36.468Z,11.31
2018-09-30T03:15:05.345Z,11.27
2018-09-30T03:17:34.168Z,11.18
2018-09-30T03:20:03.008Z,11.11
2018-09-30T03:22:31.867Z,11.01
2018-09-30T03:25:00.678Z,11.00
2018-09-30T03:27:29.511Z,10.97
2018-09-30T03:29:58.338Z,10.87
2018-09-30T03:32:27.215Z,10.77
2018-09-30T03:34:55.980Z,10.70
2018-09-30T03:37:24.788Z,10.68
2018-09-30T03:39:53.581Z,10.73
2018-09-30T03:42:22.495Z,10.79
2018-09-30T03:44:51.361Z,10.82
2018-09-30T03:47:20.145Z,10.77
2018-09-30T03:49:48.956Z,10.81
2018-09-30T03:52:17.931Z,10.79
2018-09-30T03:54:46.779Z,10.76
2018-09-30T03:57:15.640Z,10.70
2018-09-30T03:59:44.913Z,10.66
2018-09-30T04:02:13.920Z,10.61
2018-09-30T04:04:42.723Z,10.66
2018-09-30T04:07:11.522Z,10.64
2018-09-30T04:09:40.383Z,10.59
2018-09-30T04:12:09.475Z,10.55
2018-09-30T04:14:38.264Z,10.54
2018-09-30T04:17:07.101Z,10.61
2018-09-30T04:19:36.166Z,10.52
2018-09-30T04:22:05.135Z,10.53
2018-09-30T04:24:34.055Z,10.57
2018-09-30T04:27:02.862Z,10.56
2018-09-30T04:29:31.672Z,10.49
2018-09-30T04:32:00.482Z,10.53
2018-09-30T04:34:29.340Z,10.47
2018-09-30T04:36:58.136Z,10.43
2018-09-30T04:39:26.925Z,10.41
2018-09-30T04:41:55.728Z,10.42
2018-09-30T04:44:24.543Z,10.41
2018-09-30T04:46:53.341Z,10.39
2018-09-30T04:49:22.143Z,10.39
2018-09-30T04:51:50.968Z,10.35
2018-09-30T04:54:19.922Z,10.34
2018-09-30T04:56:48.768Z,10.30
2018-09-30T04:59:17.986Z,10.31
2018-09-30T05:01:46.811Z,10.34
2018-09-30T05:04:15.600Z,10.35
2018-09-30T05:06:44.365Z,10.35
2018-09-30T05:09:13.159Z,10.45
2018-09-30T05:11:41.981Z,10.53
2018-09-30T05:14:10.776Z,10.57
2018-09-30T05:16:39.901Z,10.61
2018-09-30T05:19:08.838Z,10.56
2018-09-30T05:21:37.715Z,10.63
2018-09-30T05:24:06.923Z,10.67
2018-09-30T05:26:35.800Z,10.66
2018-09-30T05:29:05.226Z,10.72
2018-09-30T05:31:34.420Z,10.85
2018-09-30T05:34:03.276Z,11.01
2018-09-30T05:36:32.074Z,11.12
2018-09-30T05:39:01.040Z,11.14
2018-09-30T05:41:29.937Z,11.11
2018-09-30T05:43:58.798Z,11.20
2018-09-30T05:46:27.712Z,11.30
2018-09-30T05:48:56.831Z,11.38
2018-09-30T05:51:25.916Z,11.42
2018-09-30T05:53:54.790Z,11.49
2018-09-30T05:56:25.616Z,11.49
2018-09-30T05:58:54.941Z,11.52
2018-09-30T06:01:23.860Z,11.52
2018-09-30T06:03:52.680Z,11.48
2018-09-30T06:06:21.897Z,11.45
2018-09-30T06:08:50.793Z,11.41
2018-09-30T06:11:20.218Z,11.44
2018-09-30T06:13:49.027Z,11.39
2018-09-30T06:16:18.039Z,11.41
2018-09-30T06:18:46.927Z,11.51
2018-09-30T06:21:15.839Z,11.58
2018-09-30T06:23:44.827Z,11.48
2018-09-30T06:26:14.071Z,11.50
2018-09-30T06:28:42.888Z,11.48
2018-09-30T06:31:11.756Z,11.54
2018-09-30T06:33:40.521Z,11.59
2018-09-30T06:36:09.328Z,11.72
2018-09-30T06:38:38.116Z,11.79
2018-09-30T06:41:07.140Z,11.85
2018-09-30T06:43:35.978Z,11.93
2018-09-30T06:46:04.786Z,11.99
2018-09-30T06:48:33.824Z,12.12
2018-09-30T06:51:02.868Z,12.01
2018-09-30T06:53:31.911Z,12.10
2018-09-30T06:56:00.787Z,12.09
2018-09-30T06:58:29.877Z,12.05
2018-09-30T07:00:58.796Z,12.07
2018-09-30T07:03:27.977Z,12.08
2018-09-30T07:05:56.810Z,12.16
2018-09-30T07:08:27.494Z,12.27
2018-09-30T07:10:56.414Z,12.40
2018-09-30T07:13:25.328Z,12.60
2018-09-30T07:15:54.180Z,12.76
2018-09-30T07:18:23.028Z,12.87
2018-09-30T07:20:51.889Z,12.99
2018-09-30T07:23:20.801Z,13.06
2018-09-30T07:25:49.627Z,13.02
2018-09-30T07:28:18.432Z,13.11
2018-09-30T07:30:47.284Z,13.39
2018-09-30T07:33:16.204Z,13.73
2018-09-30T07:35:45.545Z,13.86
2018-09-30T07:38:14.536Z,13.74
2018-09-30T07:40:43.360Z,13.59
2018-09-30T07:43:12.187Z,13.44
2018-09-30T07:45:40.994Z,13.49
2018-09-30T07:48:09.800Z,13.77
2018-09-30T07:50:38.801Z,13.99
2018-09-30T07:53:07.767Z,13.88
2018-09-30T07:55:36.679Z,13.96
2018-09-30T07:58:05.534Z,13.87
2018-09-30T08:00:34.323Z,13.70
2018-09-30T08:03:03.606Z,13.45
2018-09-30T08:05:32.532Z,13.49
2018-09-30T08:08:01.389Z,13.45
2018-09-30T08:10:33.186Z,13.58
2018-09-30T08:13:01.993Z,13.64
2018-09-30T08:15:30.912Z,13.77
2018-09-30T08:17:59.763Z,13.85
2018-09-30T08:20:28.597Z,13.90
2018-09-30T08:22:57.511Z,13.69
2018-09-30T08:25:26.396Z,13.68
2018-09-30T08:27:55.225Z,13.83
2018-09-30T08:30:25.379Z,13.75
2018-09-30T08:32:54.271Z,13.54
2018-09-30T08:35:23.184Z,13.73
2018-09-30T08:37:57.228Z,13.63
2018-09-30T08:40:31.185Z,13.72
2018-09-30T08:43:00.084Z,13.87
2018-09-30T08:45:29.039Z,14.03
2018-09-30T08:47:58.188Z,13.82
2018-09-30T08:50:27.029Z,13.86
2018-09-30T08:52:56.064Z,13.98
2018-09-30T08:55:25.010Z,13.99
2018-09-30T08:57:53.976Z,14.05
2018-09-30T09:00:22.840Z,14.21
2018-09-30T09:02:51.654Z,14.14
2018-09-30T09:05:20.564Z,14.22
2018-09-30T09:07:49.365Z,14.38
2018-09-30T09:10:18.249Z,14.58
2018-09-30T09:12:47.084Z,14.43
2018-09-30T09:15:15.949Z,14.56
2018-09-30T09:17:44.785Z,14.47
2018-09-30T09:20:13.608Z,14.40
2018-09-30T09:22:42.451Z,14.23
2018-09-30T09:25:14.522Z,14.21
2018-09-30T09:27:43.508Z,14.36
2018-09-30T09:30:12.417Z,14.56
2018-09-30T09:32:41.249Z,14.36
2018-09-30T09:35:11.068Z,14.56
2018-09-30T09:37:39.990Z,14.48
2018-09-30T09:40:10.389Z,14.41
2018-09-30T09:42:39.416Z,14.54
2018-09-30T09:45:08.898Z,14.90
2018-09-30T09:47:37.692Z,14.82
2018-09-30T09:50:07.596Z,14.74
2018-09-30T09:52:36.940Z,14.93
2018-09-30T09:55:06.055Z,14.97
2018-09-30T09:57:34.876Z,15.04
2018-09-30T10:00:04.994Z,15.03
2018-09-30T10:02:33.786Z,14.78
2018-09-30T10:05:02.633Z,14.97
2018-09-30T10:07:31.593Z,15.27
2018-09-30T10:10:00.512Z,15.30
2018-09-30T10:12:29.415Z,15.37
2018-09-30T10:14:58.217Z,15.25
2018-09-30T10:17:27.015Z,15.29
2018-09-30T10:19:55.808Z,15.46
2018-09-30T10:22:24.611Z,15.28
2018-09-30T10:24:53.502Z,15.21
2018-09-30T10:27:22.387Z,15.15
2018-09-30T10:29:51.200Z,15.20
2018-09-30T10:32:20.103Z,15.44
2018-09-30T10:34:48.920Z,15.10
2018-09-30T10:37:17.838Z,14.94
2018-09-30T10:39:46.621Z,15.14
2018-09-30T10:42:15.444Z,14.84
2018-09-30T10:44:44.245Z,14.96
2018-09-30T10:47:13.096Z,14.95
2018-09-30T10:49:41.930Z,14.93
2018-09-30T10:52:10.825Z,14.69
2018-09-30T10:54:39.678Z,14.86
2018-09-30T10:57:08.559Z,14.51
2018-09-30T10:59:37.432Z,14.54
2018-09-30T11:02:06.425Z,14.50
2018-09-30T11:04:35.356Z,14.56
2018-09-30T11:07:04.271Z,14.54
2018-09-30T11:09:33.050Z,14.36
2018-09-30T11:12:02.017Z,14.36
2018-09-30T11:14:31.224Z,14.30
2018-09-30T11:17:00.179Z,14.44
2018-09-30T11:19:28.998Z,14.46
2018-09-30T11:21:57.864Z,14.58
2018-09-30T11:24:26.681Z,14.42
2018-09-30T11:26:55.583Z,14.40
2018-09-30T11:29:24.565Z,14.54
2018-09-30T11:31:53.465Z,14.63
2018-09-30T11:34:22.453Z,14.31
2018-09-30T11:36:51.335Z,14.53
2018-09-30T11:39:20.178Z,14.34
2018-09-30T11:41:48.980Z,14.46
2018-09-30T11:44:17.779Z,14.34
2018-09-30T11:46:46.573Z,14.36
2018-09-30T11:49:15.357Z,14.49
2018-09-30T11:51:44.190Z,14.27
2018-09-30T11:54:13.056Z,14.54
2018-09-30T11:56:41.861Z,14.76
2018-09-30T11:59:10.794Z,14.75
2018-09-30T12:01:39.594Z,14.71
2018-09-30T12:04:08.684Z,14.77
2018-09-30T12:06:37.546Z,14.82
2018-09-30T12:09:08.473Z,14.82
2018-09-30T12:11:37.377Z,14.47
2018-09-30T12:14:06.240Z,14.54
2018-09-30T12:16:35.274Z,14.57
2018-09-30T12:19:04.074Z,14.58
2018-09-30T12:21:32.912Z,14.66
2018-09-30T12:24:01.830Z,14.74
2018-09-30T12:26:30.823Z,14.87
2018-09-30T12:28:59.610Z,15.16
2018-09-30T12:31:28.544Z,15.07
2018-09-30T12:33:57.680Z,15.22
2018-09-30T12:36:26.637Z,15.35
2018-09-30T12:38:55.524Z,15.27
2018-09-30T12:41:24.496Z,15.01
2018-09-30T12:43:53.383Z,15.11
2018-09-30T12:46:22.240Z,15.11
2018-09-30T12:48:51.072Z,15.22
2018-09-30T12:51:19.857Z,15.18
2018-09-30T12:53:48.796Z,15.25
2018-09-30T12:56:17.635Z,15.02
2018-09-30T12:58:46.493Z,14.97
2018-09-30T13:01:15.365Z,15.08
2018-09-30T13:03:44.286Z,15.21
2018-09-30T13:06:13.396Z,15.25
2018-09-30T13:08:42.270Z,15.04
2018-09-30T13:11:11.200Z,14.98
2018-09-30T13:13:40.080Z,14.98
2018-09-30T13:16:09.049Z,14.98
2018-09-30T13:18:38.040Z,14.93
2018-09-30T13:21:07.073Z,14.92
2018-09-30T13:23:36.176Z,14.77
2018-09-30T13:26:05.012Z,14.77
2018-09-30T13:28:33.860Z,14.89
2018-09-30T13:31:02.704Z,14.75
2018-09-30T13:33:31.536Z,14.60
2018-09-30T13:36:00.691Z,14.55
2018-09-30T13:38:29.516Z,14.49
2018-09-30T13:40:58.553Z,14.53
2018-09-30T13:43:29.650Z,14.55
2018-09-30T13:45:58.612Z,14.62
2018-09-30T13:48:27.706Z,14.57
2018-09-30T13:50:56.704Z,14.63
2018-09-30T13:53:25.593Z,14.54
2018-09-30T13:55:54.522Z,14.60
2018-09-30T13:58:23.351Z,14.73
2018-09-30T14:00:52.367Z,14.71
2018-09-30T14:03:21.265Z,14.58
2018-09-30T14:05:50.177Z,14.55
2018-09-30T14:08:19.064Z,14.52
2018-09-30T14:10:47.856Z,14.52
2018-09-30T14:13:16.709Z,14.61
2018-09-30T14:15:45.868Z,14.72
2018-09-30T14:18:14.727Z,14.50
2018-09-30T14:20:43.568Z,14.65
2018-09-30T14:23:12.518Z,14.64
2018-09-30T14:25:41.449Z,14.60
2018-09-30T14:28:10.247Z,14.53
2018-09-30T14:30:39.083Z,14.36
2018-09-30T14:33:08.152Z,14.31
2018-09-30T14:35:37.520Z,14.33
2018-09-30T14:38:06.562Z,14.23
2018-09-30T14:40:35.365Z,14.24
2018-09-30T14:43:04.240Z,14.27
2018-09-30T14:45:33.067Z,14.09
2018-09-30T14:48:01.950Z,13.99
2018-09-30T14:50:32.231Z,13.97
2018-09-30T14:53:01.433Z,13.94
2018-09-30T14:55:30.433Z,13.86
2018-09-30T14:57:59.368Z,13.78
2018-09-30T15:00:28.204Z,13.70
2018-09-30T15:02:57.035Z,13.64
2018-09-30T15:05:25.833Z,13.66
2018-09-30T15:07:54.694Z,13.63
2018-09-30T15:10:23.601Z,13.75
2018-09-30T15:12:52.449Z,13.70
2018-09-30T15:15:21.402Z,13.69
2018-09-30T15:17:50.165Z,13.67
2018-09-30T15:20:19.116Z,13.58
2018-09-30T15:22:47.980Z,13.31
2018-09-30T15:25:16.892Z,13.18
2018-09-30T15:27:45.773Z,13.09
2018-09-30T15:30:14.718Z,13.04
2018-09-30T15:32:43.548Z,12.94
2018-09-30T15:35:12.655Z,12.84
2018-09-30T15:37:41.648Z,12.75
2018-09-30T15:40:10.541Z,12.63
2018-09-30T15:42:39.353Z,12.49
2018-09-30T15:45:08.277Z,12.49
2018-09-30T15:47:37.103Z,12.53
2018-09-30T15:50:06.335Z,12.45
2018-09-30T15:52:35.132Z,12.36
2018-09-30T15:55:10.269Z,12.27
2018-09-30T15:57:39.130Z,12.29
2018-09-30T16:00:08.109Z,12.27
2018-09-30T16:02:36.998Z,12.24
2018-09-30T16:05:05.923Z,12.17
2018-09-30T16:07:34.771Z,12.11
2018-09-30T16:10:03.782Z,12.12
2018-09-30T16:12:32.709Z,12.13
2018-09-30T16:15:01.545Z,11.98
2018-09-30T16:17:30.367Z,11.92
2018-09-30T16:19:59.799Z,11.82
2018-09-30T16:22:28.609Z,11.81
2018-09-30T16:24:57.624Z,11.80
2018-09-30T16:27:26.496Z,11.79
2018-09-30T16:29:55.316Z,11.79
2018-09-30T16:32:24.230Z,11.83
2018-09-30T16:34:53.258Z,11.80
2018-09-30T16:37:22.178Z,11.81
2018-09-30T16:39:51.004Z,11.77
2018-09-30T16:42:19.932Z,11.76
2018-09-30T16:44:48.756Z,11.76
2018-09-30T16:47:17.571Z,11.68
2018-09-30T16:49:46.463Z,11.64
2018-09-30T16:52:15.434Z,11.64
2018-09-30T16:54:44.454Z,11.66
2018-09-30T16:57:13.322Z,11.63
2018-09-30T16:59:42.297Z,11.62
2018-09-30T17:02:12.152Z,11.62
2018-09-30T17:04:41.040Z,11.52
2018-09-30T17:07:09.941Z,11.51
2018-09-30T17:09:38.825Z,11.50
2018-09-30T17:12:08.896Z,11.58
2018-09-30T17:14:37.788Z,11.62
2018-09-30T17:17:07.123Z,11.58
2018-09-30T17:19:35.936Z,11.57
2018-09-30T17:22:04.823Z,11.54
2018-09-30T17:24:33.837Z,11.58
2018-09-30T17:29:30.569Z,11.68
2018-09-30T17:31:59.482Z,11.67
2018-09-30T17:34:28.426Z,11.70
2018-09-30T17:36:57.282Z,11.65
2018-09-30T17:39:26.320Z,11.69
2018-09-30T17:41:55.279Z,11.66
2018-09-30T17:44:24.141Z,11.70
2018-09-30T17:46:52.967Z,11.71
2018-09-30T17:49:21.884Z,11.71
2018-09-30T17:51:50.788Z,11.71
2018-09-30T17:54:19.623Z,11.68
2018-09-30T17:56:48.529Z,11.69
2018-09-30T17:59:17.724Z,11.66
2018-09-30T18:01:46.770Z,11.64
2018-09-30T18:04:15.780Z,11.65
2018-09-30T18:06:44.693Z,11.58
2018-09-30T18:09:13.749Z,11.63
2018-09-30T18:11:42.973Z,11.72
2018-09-30T18:14:11.848Z,11.67
2018-09-30T18:16:40.681Z,11.64
2018-09-30T18:19:09.661Z,11.64
2018-09-30T18:21:38.620Z,11.65
2018-09-30T18:24:08.329Z,11.71
2018-09-30T18:26:37.539Z,11.75
2018-09-30T18:29:06.736Z,11.73
2018-09-30T18:31:35.961Z,11.75
2018-09-30T18:34:06.177Z,11.77
2018-09-30T18:36:35.313Z,11.82
2018-09-30T18:39:05.308Z,11.77
2018-09-30T18:41:34.298Z,11.77
2018-09-30T18:44:03.426Z,11.76
2018-09-30T18:46:32.708Z,11.79
2018-09-30T18:49:01.892Z,11.73
2018-09-30T18:51:31.038Z,11.69
2018-09-30T18:54:00.000Z,11.68
2018-09-30T18:56:28.966Z,11.66
2018-09-30T18:58:57.941Z,11.64
2018-09-30T19:01:26.783Z,11.69
2018-09-30T19:03:55.683Z,11.68
2018-09-30T19:06:24.607Z,11.71
2018-09-30T19:08:53.524Z,11.72
2018-09-30T19:11:22.406Z,11.73
2018-09-30T19:13:51.281Z,11.71
2018-09-30T19:16:20.202Z,11.71
2018-09-30T19:18:49.052Z,11.64
2018-09-30T19:21:17.857Z,11.64
2018-09-30T19:23:46.776Z,11.71
2018-09-30T19:26:15.877Z,11.73
2018-09-30T19:28:44.946Z,11.70
2018-09-30T19:31:13.795Z,11.72
2018-09-30T19:33:42.660Z,11.67
2018-09-30T19:36:11.613Z,11.61
2018-09-30T19:38:40.645Z,11.63
2018-09-30T19:41:09.781Z,11.66
2018-09-30T19:43:38.843Z,11.62
2018-09-30T19:46:08.442Z,11.64
2018-09-30T19:48:37.344Z,11.66
2018-09-30T19:51:06.310Z,11.68
2018-09-30T19:53:35.188Z,11.69
2018-09-30T19:56:04.106Z,11.65
2018-09-30T19:58:33.131Z,11.63
2018-09-30T20:01:02.106Z,11.56
2018-09-30T20:03:31.055Z,11.63
2018-09-30T20:05:59.900Z,11.61
2018-09-30T20:08:28.787Z,11.56
2018-09-30T20:10:57.785Z,11.56
2018-09-30T20:13:26.645Z,11.57
2018-09-30T20:15:55.479Z,11.58
2018-09-30T20:18:24.353Z,11.56
2018-09-30T20:20:53.271Z,11.57
2018-09-30T20:23:22.313Z,11.60
2018-09-30T20:25:51.294Z,11.63
2018-09-30T20:28:20.132Z,11.66
2018-09-30T20:30:49.053Z,11.64
2018-09-30T20:33:17.860Z,11.64
2018-09-30T20:35:46.695Z,11.63
2018-09-30T20:38:16.276Z,11.67
2018-09-30T20:40:45.100Z,11.64
2018-09-30T20:43:13.925Z,11.65
2018-09-30T20:45:42.784Z,11.65
2018-09-30T20:48:11.704Z,11.59
2018-09-30T20:50:40.581Z,11.57
2018-09-30T20:53:09.480Z,11.57
2018-09-30T20:55:38.304Z,11.56
2018-09-30T20:58:07.336Z,11.54
2018-09-30T21:00:36.372Z,11.57
2018-09-30T21:03:05.222Z,11.59
2018-09-30T21:05:53.053Z,11.62
2018-09-30T21:08:21.885Z,11.64
2018-09-30T21:10:50.692Z,11.65
2018-09-30T21:13:19.459Z,11.63
2018-09-30T21:15:48.424Z,11.65
2018-09-30T21:18:17.242Z,11.66
2018-09-30T21:20:46.056Z,11.67
2018-09-30T21:23:14.929Z,11.64
2018-09-30T21:25:43.744Z,11.58
2018-09-30T21:28:12.666Z,11.60
2018-09-30T21:30:41.766Z,11.60
2018-09-30T21:33:10.622Z,11.55
2018-09-30T21:35:39.437Z,11.57
2018-09-30T21:38:08.204Z,11.53
2018-09-30T21:40:37.011Z,11.53
2018-09-30T21:43:05.872Z,11.49
2018-09-30T21:45:34.755Z,11.47
2018-09-30T21:48:03.566Z,11.47
2018-09-30T21:50:32.459Z,11.46
2018-09-30T21:53:01.348Z,11.48
2018-09-30T21:55:30.343Z,11.54
2018-09-30T21:57:59.168Z,11.54
2018-09-30T22:00:33.275Z,11.45
2018-09-30T22:03:02.253Z,11.43
2018-09-30T22:05:31.164Z,11.46
2018-09-30T22:08:00.120Z,11.50
2018-09-30T22:10:29.075Z,11.47
2018-09-30T22:12:58.047Z,11.52
2018-09-30T22:15:26.960Z,11.53
2018-09-30T22:17:56.019Z,11.47
2018-09-30T22:20:24.967Z,11.53
2018-09-30T22:22:53.851Z,11.49
2018-09-30T22:25:22.696Z,11.51
2018-09-30T22:27:51.628Z,11.52
2018-09-30T22:30:20.554Z,11.58
2018-09-30T22:32:49.465Z,11.56
2018-09-30T22:35:18.312Z,11.52
2018-09-30T22:37:47.084Z,11.50
2018-09-30T22:40:15.984Z,11.57
2018-09-30T22:42:44.975Z,11.53
2018-09-30T22:45:13.804Z,11.58
2018-09-30T22:47:42.743Z,11.60
2018-09-30T22:50:11.617Z,11.54
2018-09-30T22:52:40.419Z,11.56
2018-09-30T22:55:09.252Z,11.56
2018-09-30T22:57:38.077Z,11.52
2018-09-30T23:00:07.385Z,11.54
2018-09-30T23:02:36.259Z,11.53
2018-09-30T23:05:05.568Z,11.53
2018-09-30T23:07:34.419Z,11.56
2018-09-30T23:10:03.364Z,11.55
2018-09-30T23:12:32.224Z,11.57
2018-09-30T23:15:01.107Z,11.53
2018-09-30T23:17:29.998Z,11.50
2018-09-30T23:19:58.780Z,11.54
2018-09-30T23:22:27.640Z,11.52
2018-09-30T23:24:56.428Z,11.49
2018-09-30T23:27:25.258Z,11.52
2018-09-30T23:29:54.151Z,11.51
2018-09-30T23:32:23.047Z,11.46
2018-09-30T23:34:51.826Z,11.48
2018-09-30T23:37:20.723Z,11.47
2018-09-30T23:39:49.511Z,11.44
2018-09-30T23:42:18.371Z,11.47
2018-09-30T23:44:47.215Z,11.45
2018-09-30T23:47:16.065Z,11.49
2018-09-30T23:49:44.843Z,11.50
2018-09-30T23:52:13.705Z,11.49
2018-09-30T23:54:42.472Z,11.46
2018-09-30T23:57:11.278Z,11.49
2018-09-30T23:59:40.201Z,11.52
